createdAt,value
2023-04-04T00:02:25.167Z,2.21
2023-04-04T00:04:52.980Z,2.24
2023-04-04T00:07:20.194Z,2.19
2023-04-04T00:09:47.528Z,2.15
2023-04-04T00:12:14.724Z,2.26
2023-04-04T00:14:42.088Z,2.17
2023-04-04T00:17:09.351Z,2.09
2023-04-04T00:19:36.879Z,2.05
2023-04-04T00:22:04.591Z,2.07
2023-04-04T00:24:31.971Z,2.08
2023-04-04T00:26:59.200Z,2.07
2023-04-04T00:29:26.600Z,2.08
2023-04-04T00:31:53.927Z,2.02
2023-04-04T00:34:21.632Z,1.93
2023-04-04T00:36:48.814Z,1.98
2023-04-04T00:39:16.113Z,1.95
2023-04-04T00:41:43.337Z,1.93
2023-04-04T00:44:11.268Z,1.85
2023-04-04T00:46:38.549Z,1.87
2023-04-04T00:49:06.403Z,1.80
2023-04-04T00:51:34.153Z,1.84
2023-04-04T00:54:01.984Z,1.81
2023-04-04T00:56:30.207Z,1.81
2023-04-04T00:58:57.552Z,1.80
2023-04-04T01:01:27.613Z,1.78
2023-04-04T01:03:55.075Z,1.80
2023-04-04T01:06:22.395Z,1.74
2023-04-04T01:08:49.723Z,1.70
2023-04-04T01:11:16.980Z,1.74
2023-04-04T01:13:44.417Z,1.73
2023-04-04T01:16:15.835Z,1.77
2023-04-04T01:18:43.381Z,1.78
2023-04-04T01:21:11.606Z,1.78
2023-04-04T01:23:52.676Z,1.82
2023-04-04T01:26:24.179Z,1.80
2023-04-04T01:28:57.412Z,1.71
2023-04-04T01:31:32.969Z,1.71
2023-04-04T01:34:12.292Z,1.74
2023-04-04T01:37:04.333Z,1.75
2023-04-04T01:39:43.302Z,1.74
2023-04-04T01:42:12.792Z,1.81
2023-04-04T01:44:40.250Z,1.80
2023-04-04T01:47:10.781Z,1.80
2023-04-04T01:49:38.226Z,1.75
2023-04-04T01:52:07.544Z,1.66
2023-04-04T01:54:36.144Z,1.74
2023-04-04T01:57:03.374Z,1.71
2023-04-04T01:59:30.752Z,1.77
2023-04-04T02:01:58.271Z,1.77
2023-04-04T02:04:26.060Z,1.74
2023-04-04T02:06:53.663Z,1.74
2023-04-04T02:09:21.022Z,1.73
2023-04-04T02:11:48.621Z,1.75
2023-04-04T02:14:15.939Z,1.68
2023-04-04T02:16:44.081Z,1.71
2023-04-04T02:19:12.021Z,1.66
2023-04-04T02:21:39.288Z,1.63
2023-04-04T02:24:06.891Z,1.66
2023-04-04T02:26:37.238Z,1.60
2023-04-04T02:29:06.549Z,1.67
2023-04-04T02:31:34.534Z,1.64
2023-04-04T02:34:02.098Z,1.57
2023-04-04T02:36:29.356Z,1.51
2023-04-04T02:38:58.014Z,1.54
2023-04-04T02:41:27.054Z,1.60
2023-04-04T02:43:54.416Z,1.60
2023-04-04T02:46:22.320Z,1.56
2023-04-04T02:48:56.508Z,1.57
2023-04-04T02:51:24.335Z,1.49
2023-04-04T02:53:51.733Z,1.51
2023-04-04T02:56:27.030Z,1.49
2023-04-04T02:58:54.737Z,1.51
2023-04-04T03:01:22.053Z,1.54
2023-04-04T03:03:49.431Z,1.53
2023-04-04T03:06:16.851Z,1.54
2023-04-04T03:08:44.152Z,1.43
2023-04-04T03:11:11.482Z,1.43
2023-04-04T03:13:38.862Z,1.44
2023-04-04T03:16:06.910Z,1.51
2023-04-04T03:18:44.834Z,1.51
2023-04-04T03:21:12.441Z,1.50
2023-04-04T03:23:39.676Z,1.46
2023-04-04T03:26:06.904Z,1.40
2023-04-04T03:28:34.482Z,1.38
2023-04-04T03:31:06.239Z,1.46
2023-04-04T03:33:38.073Z,1.42
2023-04-04T03:36:12.920Z,1.46
2023-04-04T03:38:40.712Z,1.40
2023-04-04T03:41:08.234Z,1.42
2023-04-04T03:43:35.744Z,1.33
2023-04-04T03:46:06.990Z,1.38
2023-04-04T03:48:34.377Z,1.36
2023-04-04T03:51:04.771Z,1.30
2023-04-04T03:53:32.415Z,1.35
2023-04-04T03:55:59.874Z,1.28
2023-04-04T03:58:29.077Z,1.28
2023-04-04T04:00:56.550Z,1.28
2023-04-04T04:03:27.027Z,1.29
2023-04-04T04:05:55.471Z,1.32
2023-04-04T04:08:24.070Z,1.33
2023-04-04T04:10:52.583Z,1.26
2023-04-04T04:13:19.753Z,1.35
2023-04-04T04:15:47.516Z,1.32
2023-04-04T04:18:20.816Z,1.29
2023-04-04T04:20:49.481Z,1.32
2023-04-04T04:23:16.678Z,1.30
2023-04-04T04:25:47.933Z,1.29
2023-04-04T04:28:18.209Z,1.30
2023-04-04T04:30:46.506Z,1.35
2023-04-04T04:33:16.172Z,1.25
2023-04-04T04:36:03.481Z,1.30
2023-04-04T04:38:39.944Z,1.23
2023-04-04T04:41:07.328Z,1.44
2023-04-04T04:43:41.893Z,1.35
2023-04-04T04:46:09.261Z,1.33
2023-04-04T04:48:37.267Z,1.39
2023-04-04T04:51:05.906Z,1.43
2023-04-04T04:53:43.550Z,1.40
2023-04-04T04:56:11.776Z,1.44
2023-04-04T04:58:42.475Z,1.40
2023-04-04T05:01:11.947Z,1.44
2023-04-04T05:03:40.958Z,1.47
2023-04-04T05:06:12.746Z,1.43
2023-04-04T05:08:40.540Z,1.43
2023-04-04T05:11:28.382Z,1.54
2023-04-04T05:13:56.262Z,1.46
2023-04-04T05:16:26.433Z,1.38
2023-04-04T05:18:57.328Z,1.39
2023-04-04T05:21:24.739Z,1.43
2023-04-04T05:23:54.308Z,1.40
2023-04-04T05:26:26.729Z,1.57
2023-04-04T05:28:56.350Z,1.57
2023-04-04T05:31:26.024Z,1.57
2023-04-04T05:33:53.990Z,1.66
2023-04-04T05:36:32.186Z,1.70
2023-04-04T05:39:05.175Z,1.73
2023-04-04T05:41:35.609Z,1.78
2023-04-04T05:44:10.783Z,1.91
2023-04-04T05:46:38.627Z,1.98
2023-04-04T05:49:07.456Z,2.00
2023-04-04T05:51:42.304Z,2.05
2023-04-04T05:54:13.080Z,1.98
2023-04-04T05:56:44.824Z,2.02
2023-04-04T05:59:21.207Z,2.01
2023-04-04T06:01:57.134Z,2.05
2023-04-04T06:04:34.961Z,2.21
2023-04-04T06:07:06.442Z,2.36
2023-04-04T06:09:34.145Z,2.28
2023-04-04T06:12:04.091Z,2.28
2023-04-04T06:14:35.232Z,2.36
2023-04-04T06:17:04.739Z,2.39
2023-04-04T06:19:32.251Z,2.60
2023-04-04T06:22:00.419Z,2.59
2023-04-04T06:24:29.192Z,2.45
2023-04-04T06:26:57.498Z,2.54
2023-04-04T06:29:26.814Z,2.52
2023-04-04T06:31:58.401Z,2.40
2023-04-04T06:34:35.910Z,2.70
2023-04-04T06:37:03.719Z,2.60
2023-04-04T06:39:37.989Z,2.79
2023-04-04T06:42:10.307Z,2.84
2023-04-04T06:44:40.212Z,2.86
2023-04-04T06:47:07.698Z,3.17
2023-04-04T06:49:51.530Z,3.29
2023-04-04T06:52:24.016Z,3.39
2023-04-04T06:54:52.768Z,3.90
2023-04-04T06:57:21.052Z,6.23
2023-04-04T06:59:48.797Z,6.91
2023-04-04T07:02:20.136Z,7.46
2023-04-04T07:04:48.119Z,7.04
2023-04-04T07:07:16.663Z,6.92
2023-04-04T07:09:44.414Z,8.05
2023-04-04T07:12:12.411Z,7.70
2023-04-04T07:14:40.285Z,8.01
2023-04-04T07:17:21.374Z,8.15
2023-04-04T07:19:55.003Z,9.63
2023-04-04T07:22:23.570Z,10.34
2023-04-04T07:24:57.068Z,9.56
2023-04-04T07:27:29.496Z,9.51
2023-04-04T07:29:57.110Z,9.11
2023-04-04T07:32:25.377Z,9.39
2023-04-04T07:34:52.920Z,9.73
2023-04-04T07:37:21.800Z,9.80
2023-04-04T07:39:52.933Z,9.89
2023-04-04T07:42:23.249Z,9.35
2023-04-04T07:44:57.503Z,9.91
2023-04-04T07:47:29.482Z,10.73
2023-04-04T07:49:58.045Z,10.72
2023-04-04T07:52:25.836Z,10.55
2023-04-04T07:54:53.473Z,10.83
2023-04-04T07:57:21.250Z,10.16
2023-04-04T07:59:48.759Z,10.07
2023-04-04T08:02:16.278Z,10.65
2023-04-04T08:04:44.631Z,10.13
2023-04-04T08:07:12.044Z,9.35
2023-04-04T08:09:40.318Z,9.80
2023-04-04T08:12:08.303Z,10.28
2023-04-04T08:14:35.766Z,10.07
2023-04-04T08:17:03.230Z,10.54
2023-04-04T08:19:30.843Z,10.40
2023-04-04T08:21:58.136Z,9.34
2023-04-04T08:24:28.029Z,9.30
2023-04-04T08:27:04.700Z,8.74
2023-04-04T08:29:33.408Z,8.87
2023-04-04T08:32:06.568Z,8.53
2023-04-04T08:34:40.668Z,7.32
2023-04-04T08:37:12.058Z,8.46
2023-04-04T08:39:40.590Z,9.10
2023-04-04T08:42:10.903Z,7.77
2023-04-04T08:44:40.961Z,6.80
2023-04-04T08:47:11.251Z,6.37
2023-04-04T08:49:41.532Z,6.12
2023-04-04T08:52:09.602Z,6.05
2023-04-04T08:54:36.927Z,5.96
2023-04-04T08:57:04.758Z,6.17
2023-04-04T08:59:32.494Z,6.27
2023-04-04T09:02:26.655Z,5.96
2023-04-04T09:05:05.514Z,6.12
2023-04-04T09:07:36.450Z,6.02
2023-04-04T09:10:06.191Z,5.84
2023-04-04T09:12:33.608Z,5.79
2023-04-04T09:15:00.990Z,5.79
2023-04-04T09:17:29.151Z,6.13
2023-04-04T09:19:56.779Z,6.13
2023-04-04T09:22:25.852Z,5.76
2023-04-04T09:24:54.966Z,5.91
2023-04-04T09:27:22.438Z,5.88
2023-04-04T09:29:50.158Z,6.32
2023-04-04T09:32:17.614Z,6.44
2023-04-04T09:34:48.086Z,6.36
2023-04-04T09:37:15.923Z,6.36
2023-04-04T09:39:44.223Z,6.26
2023-04-04T09:42:13.032Z,6.19
2023-04-04T09:44:41.624Z,6.48
2023-04-04T09:49:58.939Z,6.63
2023-04-04T09:52:26.795Z,6.51
2023-04-04T09:55:00.873Z,6.37
2023-04-04T09:57:35.426Z,6.85
2023-04-04T10:00:10.001Z,6.99
2023-04-04T10:02:42.285Z,7.40
2023-04-04T10:05:14.032Z,6.63
2023-04-04T10:07:44.006Z,6.60
2023-04-04T10:10:12.042Z,6.29
2023-04-04T10:12:56.823Z,6.03
2023-04-04T10:15:31.078Z,6.37
2023-04-04T10:18:04.813Z,6.63
2023-04-04T10:20:32.264Z,6.95
2023-04-04T10:23:06.020Z,7.40
2023-04-04T10:25:37.253Z,7.78
2023-04-04T10:28:06.179Z,7.30
2023-04-04T10:30:37.831Z,7.01
2023-04-04T10:33:16.540Z,7.30
2023-04-04T10:35:47.611Z,7.33
2023-04-04T10:38:15.276Z,7.73
2023-04-04T10:40:43.081Z,7.63
2023-04-04T10:43:10.926Z,7.52
2023-04-04T10:45:38.973Z,7.46
2023-04-04T10:48:08.916Z,7.56
2023-04-04T10:50:39.511Z,7.88
2023-04-04T10:53:07.210Z,8.02
2023-04-04T10:55:35.788Z,7.81
2023-04-04T10:58:04.148Z,8.24
2023-04-04T11:00:33.686Z,8.12
2023-04-04T11:03:03.025Z,7.78
2023-04-04T11:05:41.357Z,7.83
2023-04-04T11:08:20.338Z,7.71
2023-04-04T11:10:54.709Z,7.98
2023-04-04T11:13:27.433Z,7.94
2023-04-04T11:15:58.975Z,7.92
2023-04-04T11:18:34.195Z,7.63
2023-04-04T11:21:07.600Z,7.78
2023-04-04T11:24:13.674Z,7.90
2023-04-04T11:26:46.645Z,7.44
2023-04-04T11:29:21.808Z,7.88
2023-04-04T11:31:50.933Z,7.81
2023-04-04T11:34:32.381Z,7.74
2023-04-04T11:37:03.360Z,7.47
2023-04-04T11:39:31.364Z,7.67
2023-04-04T11:42:14.714Z,7.57
2023-04-04T11:44:43.230Z,7.83
2023-04-04T11:47:11.913Z,7.80
2023-04-04T11:49:41.456Z,7.63
2023-04-04T11:52:12.912Z,7.85
2023-04-04T11:54:42.016Z,8.02
2023-04-04T11:57:16.036Z,8.08
2023-04-04T11:59:47.698Z,8.35
2023-04-04T12:02:35.481Z,8.33
2023-04-04T12:05:03.160Z,8.22
2023-04-04T12:07:30.560Z,7.73
2023-04-04T12:09:58.731Z,7.64
2023-04-04T12:12:27.825Z,7.97
2023-04-04T12:15:06.285Z,8.11
2023-04-04T12:17:43.580Z,8.29
2023-04-04T12:20:11.631Z,8.16
2023-04-04T12:22:39.897Z,7.67
2023-04-04T12:25:07.941Z,7.78
2023-04-04T12:27:36.233Z,7.95
2023-04-04T12:30:04.666Z,7.95
2023-04-04T12:32:32.143Z,8.11
2023-04-04T12:35:03.737Z,8.06
2023-04-04T12:37:31.586Z,8.11
2023-04-04T12:40:02.614Z,7.80
2023-04-04T12:42:33.319Z,7.69
2023-04-04T12:45:05.576Z,8.01
2023-04-04T12:47:37.172Z,8.05
2023-04-04T12:50:04.892Z,8.26
2023-04-04T12:52:32.620Z,8.22
2023-04-04T12:55:08.368Z,8.14
2023-04-04T12:57:37.000Z,8.05
2023-04-04T13:00:06.847Z,7.66
2023-04-04T13:02:35.940Z,7.57
2023-04-04T13:05:03.966Z,7.71
2023-04-04T13:07:35.806Z,7.52
2023-04-04T13:10:05.304Z,7.49
2023-04-04T13:13:01.215Z,7.46
2023-04-04T13:15:55.002Z,7.52
2023-04-04T13:18:23.891Z,7.66
2023-04-04T13:20:52.002Z,7.74
2023-04-04T13:23:19.672Z,7.67
2023-04-04T13:25:47.021Z,7.57
2023-04-04T13:28:14.543Z,7.74
2023-04-04T13:30:46.964Z,7.70
2023-04-04T13:33:17.995Z,7.80
2023-04-04T13:35:45.940Z,7.84
2023-04-04T13:38:13.205Z,7.77
2023-04-04T13:40:40.850Z,8.08
2023-04-04T13:43:08.718Z,8.04
2023-04-04T13:45:36.173Z,7.84
2023-04-04T13:48:04.335Z,7.83
2023-04-04T13:50:32.919Z,8.09
2023-04-04T13:53:03.292Z,8.21
2023-04-04T13:55:30.827Z,7.90
2023-04-04T13:57:58.204Z,7.97
2023-04-04T14:00:26.100Z,7.87
2023-04-04T14:02:55.753Z,7.99
2023-04-04T14:05:24.368Z,7.87
2023-04-04T14:07:51.864Z,7.74
2023-04-04T14:10:19.251Z,7.77
2023-04-04T14:12:46.883Z,7.84
2023-04-04T14:15:14.470Z,8.02
2023-04-04T14:17:42.635Z,8.04
2023-04-04T14:20:10.770Z,8.01
2023-04-04T14:22:38.003Z,7.97
2023-04-04T14:25:05.707Z,7.94
2023-04-04T14:27:33.053Z,7.98
2023-04-04T14:30:00.423Z,8.21
2023-04-04T14:32:27.741Z,8.20
2023-04-04T14:34:55.085Z,8.01
2023-04-04T14:37:22.560Z,7.98
2023-04-04T14:39:50.247Z,8.14
2023-04-04T14:42:17.703Z,8.02
2023-04-04T14:44:45.104Z,7.92
2023-04-04T14:47:12.423Z,7.78
2023-04-04T14:49:39.871Z,7.83
2023-04-04T14:52:07.155Z,7.92
2023-04-04T14:54:34.597Z,7.70
2023-04-04T14:57:02.293Z,7.71
2023-04-04T14:59:29.898Z,7.74
2023-04-04T15:01:57.441Z,7.78
2023-04-04T15:04:24.861Z,7.85
2023-04-04T15:06:52.493Z,7.44
2023-04-04T15:09:19.771Z,7.63
2023-04-04T15:11:47.553Z,7.63
2023-04-04T15:14:15.188Z,7.56
2023-04-04T15:16:42.484Z,7.49
2023-04-04T15:19:11.382Z,7.40
2023-04-04T15:21:38.683Z,7.30
2023-04-04T15:24:06.160Z,7.46
2023-04-04T15:26:33.583Z,7.26
2023-04-04T15:29:00.925Z,7.22
2023-04-04T15:31:28.352Z,7.18
2023-04-04T15:33:59.198Z,7.16
2023-04-04T15:36:28.000Z,7.13
2023-04-04T15:38:55.688Z,7.27
2023-04-04T15:41:23.240Z,7.15
2023-04-04T15:43:50.839Z,7.25
2023-04-04T15:46:18.298Z,7.05
2023-04-04T15:48:47.681Z,7.13
2023-04-04T15:51:15.040Z,6.94
2023-04-04T15:53:42.261Z,7.01
2023-04-04T15:56:10.444Z,7.01
2023-04-04T15:58:37.660Z,6.99
2023-04-04T16:01:06.595Z,6.98
2023-04-04T16:03:34.108Z,6.92
2023-04-04T16:06:01.480Z,6.85
2023-04-04T16:08:28.851Z,6.83
2023-04-04T16:11:00.141Z,6.85
2023-04-04T16:13:27.757Z,6.80
2023-04-04T16:15:55.620Z,6.75
2023-04-04T16:18:22.948Z,6.81
2023-04-04T16:20:50.174Z,6.67
2023-04-04T16:23:18.005Z,6.63
2023-04-04T16:25:45.469Z,6.65
2023-04-04T16:28:12.769Z,6.57
2023-04-04T16:30:40.208Z,6.55
2023-04-04T16:33:07.866Z,6.53
2023-04-04T16:35:35.484Z,6.54
2023-04-04T16:38:02.728Z,6.46
2023-04-04T16:40:30.033Z,6.54
2023-04-04T16:42:57.396Z,6.36
2023-04-04T16:45:24.818Z,6.43
2023-04-04T16:47:52.149Z,6.43
2023-04-04T16:50:19.522Z,6.43
2023-04-04T16:52:46.919Z,6.37
2023-04-04T16:55:14.242Z,6.27
2023-04-04T16:57:42.761Z,6.26
2023-04-04T17:00:10.403Z,6.17
2023-04-04T17:02:45.733Z,6.15
2023-04-04T17:05:16.389Z,5.92
2023-04-04T17:07:43.819Z,5.85
2023-04-04T17:10:11.486Z,5.72
2023-04-04T17:12:39.411Z,5.59
2023-04-04T17:15:07.650Z,5.66
2023-04-04T17:17:35.119Z,5.57
2023-04-04T17:20:02.490Z,5.47
2023-04-04T17:22:29.817Z,5.40
2023-04-04T17:24:57.278Z,5.33
2023-04-04T17:27:24.589Z,5.19
2023-04-04T17:29:52.230Z,5.16
2023-04-04T17:32:19.583Z,5.15
2023-04-04T17:34:46.901Z,5.15
2023-04-04T17:37:14.240Z,5.10
2023-04-04T17:39:42.805Z,5.10
2023-04-04T17:42:10.659Z,5.07
2023-04-04T17:44:38.187Z,4.97
2023-04-04T17:47:06.052Z,4.92
2023-04-04T17:49:33.351Z,4.90
2023-04-04T17:52:00.942Z,4.90
2023-04-04T17:54:29.797Z,4.85
2023-04-04T17:56:57.295Z,4.93
2023-04-04T17:59:24.595Z,4.78
2023-04-04T18:01:51.972Z,4.68
2023-04-04T18:04:19.521Z,4.82
2023-04-04T18:06:46.847Z,4.75
2023-04-04T18:09:14.290Z,4.56
2023-04-04T18:11:41.925Z,4.54
2023-04-04T18:14:09.247Z,4.51
2023-04-04T18:16:40.172Z,4.44
2023-04-04T18:19:09.661Z,4.48
2023-04-04T18:21:37.805Z,4.37
2023-04-04T18:24:07.531Z,4.34
2023-04-04T18:26:34.911Z,4.31
2023-04-04T18:29:02.266Z,4.21
2023-04-04T18:31:29.535Z,4.21
2023-04-04T18:33:57.018Z,4.18
2023-04-04T18:36:24.286Z,4.10
2023-04-04T18:38:51.951Z,4.00
2023-04-04T18:41:19.967Z,4.04
2023-04-04T18:43:47.319Z,4.08
2023-04-04T18:46:15.458Z,4.03
2023-04-04T18:48:42.906Z,3.96
2023-04-04T18:51:10.167Z,3.83
2023-04-04T18:53:37.521Z,3.80
2023-04-04T18:56:04.750Z,3.80
2023-04-04T18:58:32.130Z,3.91
2023-04-04T19:00:59.413Z,3.86
2023-04-04T19:03:27.266Z,3.85
2023-04-04T19:05:54.615Z,3.79
2023-04-04T19:08:22.190Z,3.75
2023-04-04T19:10:50.926Z,3.69
2023-04-04T19:13:18.459Z,3.66
2023-04-04T19:15:45.763Z,3.72
2023-04-04T19:18:13.054Z,3.69
2023-04-04T19:20:42.279Z,3.59
2023-04-04T19:23:10.377Z,3.52
2023-04-04T19:25:37.693Z,3.52
2023-04-04T19:28:05.326Z,3.42
2023-04-04T19:30:47.512Z,3.42
2023-04-04T19:33:21.398Z,3.49
2023-04-04T19:35:55.004Z,3.43
2023-04-04T19:38:26.196Z,3.21
2023-04-04T19:40:57.121Z,3.28
2023-04-04T19:43:24.759Z,3.14
2023-04-04T19:45:53.197Z,3.17
2023-04-04T19:48:39.021Z,3.14
2023-04-04T19:51:07.866Z,3.18
2023-04-04T19:53:35.083Z,3.05
2023-04-04T19:56:07.233Z,3.07
2023-04-04T19:58:34.632Z,3.04
2023-04-04T20:01:02.004Z,3.07
2023-04-04T20:03:39.252Z,3.12
2023-04-04T20:06:13.322Z,3.08
2023-04-04T20:08:45.661Z,2.84
2023-04-04T20:11:13.023Z,2.81
2023-04-04T20:13:40.539Z,2.84
2023-04-04T20:16:14.952Z,2.87
2023-04-04T20:18:43.853Z,2.76
2023-04-04T20:21:21.393Z,2.86
2023-04-04T20:23:56.428Z,2.86
2023-04-04T20:26:36.336Z,2.72
2023-04-04T20:29:11.621Z,2.63
2023-04-04T20:31:43.784Z,2.61
2023-04-04T20:34:29.989Z,2.64
2023-04-04T20:36:57.336Z,2.57
2023-04-04T20:39:37.981Z,2.59
2023-04-04T20:42:31.396Z,2.52
2023-04-04T20:45:13.813Z,2.60
2023-04-04T20:47:49.016Z,2.36
2023-04-04T20:50:16.615Z,2.30
2023-04-04T20:52:43.728Z,2.45
2023-04-04T20:55:11.093Z,2.40
2023-04-04T20:57:38.343Z,2.33
2023-04-04T21:00:26.932Z,2.30
2023-04-04T21:02:54.665Z,2.21
2023-04-04T21:05:31.828Z,2.28
2023-04-04T21:07:59.966Z,2.26
2023-04-04T21:10:27.142Z,2.24
2023-04-04T21:12:58.449Z,2.09
2023-04-04T21:15:35.172Z,2.12
2023-04-04T21:18:08.291Z,2.09
2023-04-04T21:20:48.012Z,2.05
2023-04-04T21:23:27.681Z,2.11
2023-04-04T21:26:02.992Z,2.04
2023-04-04T21:28:42.817Z,1.97
2023-04-04T21:31:14.754Z,1.88
2023-04-04T21:33:46.067Z,1.94
2023-04-04T21:36:26.848Z,1.87
2023-04-04T21:38:58.539Z,1.81
2023-04-04T21:41:29.850Z,1.77
2023-04-04T21:43:58.332Z,1.84
2023-04-04T21:46:27.036Z,1.75
2023-04-04T21:48:54.640Z,1.70
2023-04-04T21:51:22.053Z,1.73
2023-04-04T21:53:49.984Z,1.78
2023-04-04T21:56:17.480Z,1.66
2023-04-04T21:58:44.786Z,1.61
2023-04-04T22:01:12.013Z,1.66
2023-04-04T22:03:39.432Z,1.60
2023-04-04T22:06:06.911Z,1.50
2023-04-04T22:08:34.217Z,1.46
2023-04-04T22:11:03.216Z,1.44
2023-04-04T22:13:33.552Z,1.42
2023-04-04T22:16:01.605Z,1.40
2023-04-04T22:18:33.236Z,1.36
2023-04-04T22:21:04.525Z,1.29
2023-04-04T22:23:37.919Z,1.25
2023-04-04T22:26:05.630Z,1.28
2023-04-04T22:28:33.813Z,1.18
2023-04-04T22:31:02.107Z,1.16
2023-04-04T22:33:29.936Z,1.09
2023-04-04T22:35:59.134Z,1.13
2023-04-04T22:38:26.854Z,1.09
2023-04-04T22:40:54.395Z,1.02
2023-04-04T22:43:22.225Z,1.01
2023-04-04T22:45:49.675Z,1.03
2023-04-04T22:48:17.369Z,0.87
2023-04-04T22:50:45.204Z,1.03
2023-04-04T22:53:15.202Z,1.09
2023-04-04T22:55:42.491Z,1.01
2023-04-04T22:58:09.694Z,0.95
2023-04-04T23:00:37.263Z,0.91
2023-04-04T23:03:06.319Z,0.81
2023-04-04T23:05:33.630Z,0.87
2023-04-04T23:08:02.530Z,0.95
2023-04-04T23:10:29.922Z,0.75
2023-04-04T23:12:57.211Z,0.77
2023-04-04T23:15:24.506Z,0.77
2023-04-04T23:17:51.966Z,0.75
2023-04-04T23:20:19.435Z,0.68
2023-04-04T23:22:47.975Z,0.65
2023-04-04T23:25:15.359Z,0.78
2023-04-04T23:27:42.631Z,0.72
2023-04-04T23:30:10.207Z,0.74
2023-04-04T23:32:37.448Z,0.68
2023-04-04T23:35:05.064Z,0.67
2023-04-04T23:37:32.302Z,0.65
2023-04-04T23:39:59.572Z,0.58
2023-04-04T23:42:26.815Z,0.60
2023-04-04T23:44:54.261Z,0.46
2023-04-04T23:47:21.469Z,0.58
2023-04-04T23:49:48.731Z,0.53
2023-04-04T23:52:15.956Z,0.49
2023-04-04T23:54:43.232Z,0.51
2023-04-04T23:57:10.442Z,0.53
2023-04-04T23:59:37.698Z,0.46
